sensor_id;sensor_type;location;lat;lon;timestamp;P1;durP1;ratioP1;P2;durP2;ratioP2
4214;SDS011;2121;48.062;7.850;2024-03-02T00:00:18;6.60;;;3.57;;
4214;SDS011;2121;48.062;7.850;2024-03-02T00:02:46;8.67;;;4.33;;
4214;SDS011;2121;48.062;7.850;2024-03-02T00:05:15;8.57;;;4.17;;
4214;SDS011;2121;48.062;7.850;2024-03-02T00:07:43;8.90;;;4.57;;
4214;SDS011;2121;48.062;7.850;2024-03-02T00:10:11;6.60;;;3.10;;
4214;SDS011;2121;48.062;7.850;2024-03-02T00:12:41;3.23;;;2.93;;
4214;SDS011;2121;48.062;7.850;2024-03-02T00:18:10;3.23;;;2.97;;
4214;SDS011;2121;48.062;7.850;2024-03-02T00:20:40;3.90;;;3.20;;
4214;SDS011;2121;48.062;7.850;2024-03-02T00:23:07;3.63;;;3.33;;
4214;SDS011;2121;48.062;7.850;2024-03-02T00:25:42;5.43;;;4.00;;
4214;SDS011;2121;48.062;7.850;2024-03-02T00:31:03;4.17;;;3.67;;
4214;SDS011;2121;48.062;7.850;2024-03-02T00:33:32;3.60;;;3.33;;
4214;SDS011;2121;48.062;7.850;2024-03-02T00:36:10;10.90;;;4.47;;
4214;SDS011;2121;48.062;7.850;2024-03-02T00:38:47;4.70;;;3.60;;
4214;SDS011;2121;48.062;7.850;2024-03-02T00:41:15;3.90;;;3.43;;
4214;SDS011;2121;48.062;7.850;2024-03-02T00:43:58;3.87;;;3.50;;
4214;SDS011;2121;48.062;7.850;2024-03-02T00:46:35;4.37;;;4.00;;
4214;SDS011;2121;48.062;7.850;2024-03-02T00:49:03;4.17;;;3.77;;
4214;SDS011;2121;48.062;7.850;2024-03-02T00:51:35;4.73;;;3.07;;
4214;SDS011;2121;48.062;7.850;2024-03-02T00:54:03;3.50;;;3.20;;
4214;SDS011;2121;48.062;7.850;2024-03-02T00:56:31;4.57;;;3.63;;
4214;SDS011;2121;48.062;7.850;2024-03-02T00:58:59;5.77;;;3.70;;
4214;SDS011;2121;48.062;7.850;2024-03-02T01:01:26;6.23;;;3.60;;
4214;SDS011;2121;48.062;7.850;2024-03-02T01:03:52;4.57;;;3.10;;
4214;SDS011;2121;48.062;7.850;2024-03-02T01:06:18;3.57;;;3.27;;
4214;SDS011;2121;48.062;7.850;2024-03-02T01:08:44;3.57;;;3.20;;
4214;SDS011;2121;48.062;7.850;2024-03-02T01:11:11;5.30;;;3.57;;
4214;SDS011;2121;48.062;7.850;2024-03-02T01:13:36;5.00;;;3.33;;
4214;SDS011;2121;48.062;7.850;2024-03-02T01:16:02;5.07;;;3.57;;
4214;SDS011;2121;48.062;7.850;2024-03-02T01:18:29;4.93;;;3.30;;
4214;SDS011;2121;48.062;7.850;2024-03-02T01:20:55;6.00;;;3.83;;
4214;SDS011;2121;48.062;7.850;2024-03-02T01:23:21;4.83;;;3.97;;
4214;SDS011;2121;48.062;7.850;2024-03-02T01:25:48;4.67;;;3.43;;
4214;SDS011;2121;48.062;7.850;2024-03-02T01:28:14;5.43;;;3.53;;
4214;SDS011;2121;48.062;7.850;2024-03-02T01:30:40;10.93;;;3.83;;
4214;SDS011;2121;48.062;7.850;2024-03-02T01:33:06;5.20;;;3.90;;
4214;SDS011;2121;48.062;7.850;2024-03-02T01:35:32;4.90;;;3.30;;
4214;SDS011;2121;48.062;7.850;2024-03-02T01:37:58;3.10;;;2.90;;
4214;SDS011;2121;48.062;7.850;2024-03-02T01:40:24;5.57;;;4.17;;
4214;SDS011;2121;48.062;7.850;2024-03-02T01:42:51;4.20;;;3.73;;
4214;SDS011;2121;48.062;7.850;2024-03-02T01:45:23;7.40;;;4.20;;
4214;SDS011;2121;48.062;7.850;2024-03-02T01:47:49;8.57;;;4.00;;
4214;SDS011;2121;48.062;7.850;2024-03-02T01:50:15;5.90;;;3.03;;
4214;SDS011;2121;48.062;7.850;2024-03-02T01:52:41;5.20;;;3.83;;
4214;SDS011;2121;48.062;7.850;2024-03-02T01:55:09;6.73;;;3.70;;
4214;SDS011;2121;48.062;7.850;2024-03-02T01:57:35;4.20;;;3.27;;
4214;SDS011;2121;48.062;7.850;2024-03-02T02:00:00;5.80;;;3.87;;
4214;SDS011;2121;48.062;7.850;2024-03-02T02:02:27;4.03;;;3.60;;
4214;SDS011;2121;48.062;7.850;2024-03-02T02:04:53;4.53;;;3.07;;
4214;SDS011;2121;48.062;7.850;2024-03-02T02:07:19;5.73;;;3.90;;
4214;SDS011;2121;48.062;7.850;2024-03-02T02:09:45;4.60;;;3.80;;
4214;SDS011;2121;48.062;7.850;2024-03-02T02:12:10;5.87;;;3.80;;
4214;SDS011;2121;48.062;7.850;2024-03-02T02:14:36;5.77;;;3.20;;
4214;SDS011;2121;48.062;7.850;2024-03-02T02:17:02;4.00;;;3.60;;
4214;SDS011;2121;48.062;7.850;2024-03-02T02:19:28;3.93;;;3.53;;
4214;SDS011;2121;48.062;7.850;2024-03-02T02:21:54;4.53;;;3.50;;
4214;SDS011;2121;48.062;7.850;2024-03-02T02:24:20;4.00;;;3.50;;
4214;SDS011;2121;48.062;7.850;2024-03-02T02:26:46;7.40;;;4.63;;
4214;SDS011;2121;48.062;7.850;2024-03-02T02:29:11;8.73;;;5.23;;
4214;SDS011;2121;48.062;7.850;2024-03-02T02:31:41;6.93;;;4.50;;
4214;SDS011;2121;48.062;7.850;2024-03-02T02:34:07;12.63;;;4.50;;
4214;SDS011;2121;48.062;7.850;2024-03-02T02:36:34;7.37;;;4.60;;
4214;SDS011;2121;48.062;7.850;2024-03-02T02:39:04;9.83;;;4.93;;
4214;SDS011;2121;48.062;7.850;2024-03-02T02:41:33;6.00;;;4.47;;
4214;SDS011;2121;48.062;7.850;2024-03-02T02:43:58;5.93;;;4.40;;
4214;SDS011;2121;48.062;7.850;2024-03-02T02:46:24;6.90;;;4.27;;
4214;SDS011;2121;48.062;7.850;2024-03-02T02:48:50;4.47;;;3.80;;
4214;SDS011;2121;48.062;7.850;2024-03-02T02:51:18;4.37;;;3.93;;
4214;SDS011;2121;48.062;7.850;2024-03-02T02:53:43;5.30;;;3.90;;
4214;SDS011;2121;48.062;7.850;2024-03-02T02:56:09;5.50;;;3.90;;
4214;SDS011;2121;48.062;7.850;2024-03-02T02:58:35;3.63;;;3.33;;
4214;SDS011;2121;48.062;7.850;2024-03-02T03:01:01;4.03;;;3.73;;
4214;SDS011;2121;48.062;7.850;2024-03-02T03:03:26;9.53;;;3.67;;
4214;SDS011;2121;48.062;7.850;2024-03-02T03:05:52;4.07;;;3.70;;
4214;SDS011;2121;48.062;7.850;2024-03-02T03:08:18;7.10;;;4.30;;
4214;SDS011;2121;48.062;7.850;2024-03-02T03:10:43;4.93;;;4.33;;
4214;SDS011;2121;48.062;7.850;2024-03-02T03:13:09;8.33;;;4.37;;
4214;SDS011;2121;48.062;7.850;2024-03-02T03:15:35;4.90;;;3.83;;
4214;SDS011;2121;48.062;7.850;2024-03-02T03:18:02;5.37;;;3.67;;
4214;SDS011;2121;48.062;7.850;2024-03-02T03:20:29;6.83;;;6.07;;
4214;SDS011;2121;48.062;7.850;2024-03-02T03:22:55;11.03;;;6.53;;
4214;SDS011;2121;48.062;7.850;2024-03-02T03:25:21;4.20;;;3.83;;
4214;SDS011;2121;48.062;7.850;2024-03-02T03:27:47;4.30;;;3.53;;
4214;SDS011;2121;48.062;7.850;2024-03-02T03:30:13;6.97;;;4.33;;
4214;SDS011;2121;48.062;7.850;2024-03-02T03:32:39;4.90;;;3.50;;
4214;SDS011;2121;48.062;7.850;2024-03-02T03:35:05;3.60;;;3.30;;
4214;SDS011;2121;48.062;7.850;2024-03-02T03:37:32;5.03;;;3.40;;
4214;SDS011;2121;48.062;7.850;2024-03-02T03:40:01;4.13;;;3.00;;
4214;SDS011;2121;48.062;7.850;2024-03-02T03:42:32;3.20;;;2.90;;
4214;SDS011;2121;48.062;7.850;2024-03-02T03:44:57;8.53;;;3.03;;
4214;SDS011;2121;48.062;7.850;2024-03-02T03:47:23;7.20;;;3.30;;
4214;SDS011;2121;48.062;7.850;2024-03-02T03:49:48;3.43;;;3.20;;
4214;SDS011;2121;48.062;7.850;2024-03-02T03:52:14;6.17;;;3.10;;
4214;SDS011;2121;48.062;7.850;2024-03-02T03:54:40;2.80;;;2.60;;
4214;SDS011;2121;48.062;7.850;2024-03-02T03:57:07;3.20;;;2.90;;
4214;SDS011;2121;48.062;7.850;2024-03-02T03:59:33;8.73;;;3.30;;
4214;SDS011;2121;48.062;7.850;2024-03-02T04:01:59;5.07;;;3.00;;
4214;SDS011;2121;48.062;7.850;2024-03-02T04:04:25;4.43;;;3.27;;
4214;SDS011;2121;48.062;7.850;2024-03-02T04:06:50;3.07;;;2.73;;
4214;SDS011;2121;48.062;7.850;2024-03-02T04:09:16;2.63;;;2.43;;
4214;SDS011;2121;48.062;7.850;2024-03-02T04:11:41;3.87;;;3.40;;
4214;SDS011;2121;48.062;7.850;2024-03-02T04:14:08;3.03;;;2.80;;
4214;SDS011;2121;48.062;7.850;2024-03-02T04:16:33;3.00;;;2.70;;
4214;SDS011;2121;48.062;7.850;2024-03-02T04:18:59;6.50;;;3.50;;
4214;SDS011;2121;48.062;7.850;2024-03-02T04:21:25;3.23;;;3.00;;
4214;SDS011;2121;48.062;7.850;2024-03-02T04:23:50;3.23;;;3.03;;
4214;SDS011;2121;48.062;7.850;2024-03-02T04:26:16;3.17;;;2.90;;
4214;SDS011;2121;48.062;7.850;2024-03-02T04:28:47;4.60;;;2.97;;
4214;SDS011;2121;48.062;7.850;2024-03-02T04:31:12;5.07;;;3.00;;
4214;SDS011;2121;48.062;7.850;2024-03-02T04:33:40;4.47;;;2.63;;
4214;SDS011;2121;48.062;7.850;2024-03-02T04:36:05;5.70;;;3.60;;
4214;SDS011;2121;48.062;7.850;2024-03-02T04:38:34;3.80;;;3.50;;
4214;SDS011;2121;48.062;7.850;2024-03-02T04:41:00;5.53;;;3.63;;
4214;SDS011;2121;48.062;7.850;2024-03-02T04:43:26;8.40;;;4.20;;
4214;SDS011;2121;48.062;7.850;2024-03-02T04:45:52;4.73;;;4.20;;
4214;SDS011;2121;48.062;7.850;2024-03-02T04:48:17;5.67;;;4.40;;
4214;SDS011;2121;48.062;7.850;2024-03-02T04:50:44;6.00;;;3.40;;
4214;SDS011;2121;48.062;7.850;2024-03-02T04:53:10;4.40;;;3.47;;
4214;SDS011;2121;48.062;7.850;2024-03-02T04:55:36;3.40;;;2.93;;
4214;SDS011;2121;48.062;7.850;2024-03-02T04:58:04;3.37;;;3.10;;
4214;SDS011;2121;48.062;7.850;2024-03-02T05:00:31;3.13;;;2.83;;
4214;SDS011;2121;48.062;7.850;2024-03-02T05:02:58;3.93;;;3.10;;
4214;SDS011;2121;48.062;7.850;2024-03-02T05:05:23;4.23;;;3.40;;
4214;SDS011;2121;48.062;7.850;2024-03-02T05:07:49;5.43;;;3.20;;
4214;SDS011;2121;48.062;7.850;2024-03-02T05:10:15;4.20;;;2.93;;
4214;SDS011;2121;48.062;7.850;2024-03-02T05:12:41;5.03;;;3.47;;
4214;SDS011;2121;48.062;7.850;2024-03-02T05:15:10;3.03;;;2.80;;
4214;SDS011;2121;48.062;7.850;2024-03-02T05:17:37;7.50;;;3.20;;
4214;SDS011;2121;48.062;7.850;2024-03-02T05:20:10;2.57;;;2.37;;
4214;SDS011;2121;48.062;7.850;2024-03-02T05:22:36;4.00;;;3.00;;
4214;SDS011;2121;48.062;7.850;2024-03-02T05:25:03;3.03;;;2.70;;
4214;SDS011;2121;48.062;7.850;2024-03-02T05:27:29;4.20;;;2.70;;
4214;SDS011;2121;48.062;7.850;2024-03-02T05:29:57;4.70;;;2.90;;
4214;SDS011;2121;48.062;7.850;2024-03-02T05:32:24;4.30;;;3.70;;
4214;SDS011;2121;48.062;7.850;2024-03-02T05:34:49;3.87;;;3.00;;
4214;SDS011;2121;48.062;7.850;2024-03-02T05:37:15;4.70;;;3.20;;
4214;SDS011;2121;48.062;7.850;2024-03-02T05:39:42;3.63;;;3.37;;
4214;SDS011;2121;48.062;7.850;2024-03-02T05:42:10;3.20;;;2.83;;
4214;SDS011;2121;48.062;7.850;2024-03-02T05:44:36;2.67;;;2.47;;
4214;SDS011;2121;48.062;7.850;2024-03-02T05:47:02;6.80;;;3.50;;
4214;SDS011;2121;48.062;7.850;2024-03-02T05:49:28;2.83;;;2.60;;
4214;SDS011;2121;48.062;7.850;2024-03-02T05:51:54;2.70;;;2.50;;
4214;SDS011;2121;48.062;7.850;2024-03-02T05:54:20;2.93;;;2.40;;
4214;SDS011;2121;48.062;7.850;2024-03-02T05:56:46;3.63;;;2.77;;
4214;SDS011;2121;48.062;7.850;2024-03-02T05:59:12;13.33;;;2.83;;
4214;SDS011;2121;48.062;7.850;2024-03-02T06:01:44;3.67;;;2.97;;
4214;SDS011;2121;48.062;7.850;2024-03-02T06:04:12;3.07;;;2.80;;
4214;SDS011;2121;48.062;7.850;2024-03-02T06:06:41;2.63;;;2.43;;
4214;SDS011;2121;48.062;7.850;2024-03-02T06:09:08;4.03;;;2.70;;
4214;SDS011;2121;48.062;7.850;2024-03-02T06:11:37;3.00;;;2.50;;
4214;SDS011;2121;48.062;7.850;2024-03-02T06:14:05;3.77;;;2.60;;
4214;SDS011;2121;48.062;7.850;2024-03-02T06:16:33;3.17;;;2.87;;
4214;SDS011;2121;48.062;7.850;2024-03-02T06:18:59;2.50;;;2.30;;
4214;SDS011;2121;48.062;7.850;2024-03-02T06:21:26;3.10;;;2.80;;
4214;SDS011;2121;48.062;7.850;2024-03-02T06:23:52;2.70;;;2.50;;
4214;SDS011;2121;48.062;7.850;2024-03-02T06:26:18;2.33;;;2.13;;
4214;SDS011;2121;48.062;7.850;2024-03-02T06:28:45;7.40;;;2.43;;
4214;SDS011;2121;48.062;7.850;2024-03-02T06:31:11;3.70;;;2.60;;
4214;SDS011;2121;48.062;7.850;2024-03-02T06:33:37;3.63;;;3.10;;
4214;SDS011;2121;48.062;7.850;2024-03-02T06:36:02;4.13;;;2.90;;
4214;SDS011;2121;48.062;7.850;2024-03-02T06:38:29;4.97;;;3.50;;
4214;SDS011;2121;48.062;7.850;2024-03-02T06:40:57;3.10;;;2.90;;
4214;SDS011;2121;48.062;7.850;2024-03-02T06:43:23;4.30;;;3.80;;
4214;SDS011;2121;48.062;7.850;2024-03-02T06:45:49;4.57;;;3.40;;
4214;SDS011;2121;48.062;7.850;2024-03-02T06:48:16;4.17;;;3.47;;
4214;SDS011;2121;48.062;7.850;2024-03-02T06:50:47;4.30;;;2.97;;
4214;SDS011;2121;48.062;7.850;2024-03-02T06:53:14;4.03;;;2.60;;
4214;SDS011;2121;48.062;7.850;2024-03-02T06:55:42;11.63;;;3.00;;
4214;SDS011;2121;48.062;7.850;2024-03-02T06:58:10;2.30;;;2.20;;
4214;SDS011;2121;48.062;7.850;2024-03-02T07:00:40;4.50;;;2.73;;
4214;SDS011;2121;48.062;7.850;2024-03-02T07:03:06;2.70;;;2.50;;
4214;SDS011;2121;48.062;7.850;2024-03-02T07:05:32;5.80;;;2.50;;
4214;SDS011;2121;48.062;7.850;2024-03-02T07:07:58;5.13;;;2.80;;
4214;SDS011;2121;48.062;7.850;2024-03-02T07:10:24;2.87;;;2.70;;
4214;SDS011;2121;48.062;7.850;2024-03-02T07:12:49;2.77;;;2.57;;
4214;SDS011;2121;48.062;7.850;2024-03-02T07:15:15;3.67;;;3.37;;
4214;SDS011;2121;48.062;7.850;2024-03-02T07:17:55;4.13;;;3.73;;
4214;SDS011;2121;48.062;7.850;2024-03-02T07:20:21;3.80;;;2.90;;
4214;SDS011;2121;48.062;7.850;2024-03-02T07:22:47;4.50;;;3.50;;
4214;SDS011;2121;48.062;7.850;2024-03-02T07:25:13;4.60;;;2.83;;
4214;SDS011;2121;48.062;7.850;2024-03-02T07:27:39;3.73;;;3.40;;
4214;SDS011;2121;48.062;7.850;2024-03-02T07:30:05;4.17;;;3.67;;
4214;SDS011;2121;48.062;7.850;2024-03-02T07:32:32;3.90;;;2.73;;
4214;SDS011;2121;48.062;7.850;2024-03-02T07:34:57;4.60;;;3.27;;
4214;SDS011;2121;48.062;7.850;2024-03-02T07:37:23;2.60;;;2.40;;
4214;SDS011;2121;48.062;7.850;2024-03-02T07:39:49;2.23;;;2.03;;
4214;SDS011;2121;48.062;7.850;2024-03-02T07:42:16;2.20;;;1.97;;
4214;SDS011;2121;48.062;7.850;2024-03-02T07:44:41;4.50;;;2.40;;
4214;SDS011;2121;48.062;7.850;2024-03-02T07:47:09;6.87;;;2.57;;
4214;SDS011;2121;48.062;7.850;2024-03-02T07:49:35;2.60;;;2.40;;
4214;SDS011;2121;48.062;7.850;2024-03-02T07:52:01;2.50;;;2.10;;
4214;SDS011;2121;48.062;7.850;2024-03-02T07:54:26;3.37;;;3.03;;
4214;SDS011;2121;48.062;7.850;2024-03-02T07:56:52;2.33;;;2.23;;
4214;SDS011;2121;48.062;7.850;2024-03-02T07:59:18;6.13;;;2.20;;
4214;SDS011;2121;48.062;7.850;2024-03-02T08:01:43;4.20;;;2.70;;
4214;SDS011;2121;48.062;7.850;2024-03-02T08:04:09;2.80;;;2.60;;
4214;SDS011;2121;48.062;7.850;2024-03-02T08:06:35;4.67;;;3.03;;
4214;SDS011;2121;48.062;7.850;2024-03-02T08:09:01;9.97;;;2.70;;
4214;SDS011;2121;48.062;7.850;2024-03-02T08:11:29;3.80;;;3.30;;
4214;SDS011;2121;48.062;7.850;2024-03-02T08:13:56;3.27;;;2.97;;
4214;SDS011;2121;48.062;7.850;2024-03-02T08:16:24;3.67;;;2.57;;
4214;SDS011;2121;48.062;7.850;2024-03-02T08:18:50;4.90;;;3.27;;
4214;SDS011;2121;48.062;7.850;2024-03-02T08:21:17;4.20;;;2.50;;
4214;SDS011;2121;48.062;7.850;2024-03-02T08:23:43;2.97;;;2.50;;
4214;SDS011;2121;48.062;7.850;2024-03-02T08:26:09;3.07;;;2.10;;
4214;SDS011;2121;48.062;7.850;2024-03-02T08:28:35;2.17;;;2.07;;
4214;SDS011;2121;48.062;7.850;2024-03-02T08:31:05;2.10;;;1.90;;
4214;SDS011;2121;48.062;7.850;2024-03-02T08:33:32;2.27;;;2.10;;
4214;SDS011;2121;48.062;7.850;2024-03-02T08:35:58;4.67;;;3.33;;
4214;SDS011;2121;48.062;7.850;2024-03-02T08:38:24;3.10;;;2.90;;
4214;SDS011;2121;48.062;7.850;2024-03-02T08:40:50;2.20;;;2.00;;
4214;SDS011;2121;48.062;7.850;2024-03-02T08:43:16;2.33;;;2.13;;
4214;SDS011;2121;48.062;7.850;2024-03-02T08:45:42;1.87;;;1.77;;
4214;SDS011;2121;48.062;7.850;2024-03-02T08:48:08;2.30;;;1.90;;
4214;SDS011;2121;48.062;7.850;2024-03-02T08:50:34;2.70;;;1.83;;
4214;SDS011;2121;48.062;7.850;2024-03-02T08:53:01;2.70;;;2.50;;
4214;SDS011;2121;48.062;7.850;2024-03-02T08:55:28;2.40;;;2.20;;
4214;SDS011;2121;48.062;7.850;2024-03-02T08:57:54;2.70;;;2.50;;
4214;SDS011;2121;48.062;7.850;2024-03-02T09:00:21;2.23;;;2.03;;
4214;SDS011;2121;48.062;7.850;2024-03-02T09:02:47;2.47;;;2.27;;
4214;SDS011;2121;48.062;7.850;2024-03-02T09:05:13;1.67;;;1.57;;
4214;SDS011;2121;48.062;7.850;2024-03-02T09:07:38;1.77;;;1.67;;
4214;SDS011;2121;48.062;7.850;2024-03-02T09:10:05;2.77;;;2.50;;
4214;SDS011;2121;48.062;7.850;2024-03-02T09:12:32;2.63;;;2.43;;
4214;SDS011;2121;48.062;7.850;2024-03-02T09:14:59;4.43;;;2.93;;
4214;SDS011;2121;48.062;7.850;2024-03-02T09:17:26;4.47;;;2.83;;
4214;SDS011;2121;48.062;7.850;2024-03-02T09:19:52;2.53;;;2.33;;
4214;SDS011;2121;48.062;7.850;2024-03-02T09:22:18;3.63;;;2.30;;
4214;SDS011;2121;48.062;7.850;2024-03-02T09:24:44;1.77;;;1.67;;
4214;SDS011;2121;48.062;7.850;2024-03-02T09:27:10;1.73;;;1.60;;
4214;SDS011;2121;48.062;7.850;2024-03-02T09:29:36;1.90;;;1.77;;
4214;SDS011;2121;48.062;7.850;2024-03-02T09:32:02;1.60;;;1.40;;
4214;SDS011;2121;48.062;7.850;2024-03-02T09:34:32;1.93;;;1.83;;
4214;SDS011;2121;48.062;7.850;2024-03-02T09:36:58;6.43;;;3.13;;
4214;SDS011;2121;48.062;7.850;2024-03-02T09:39:23;2.13;;;2.03;;
4214;SDS011;2121;48.062;7.850;2024-03-02T09:41:52;3.67;;;2.43;;
4214;SDS011;2121;48.062;7.850;2024-03-02T09:44:19;2.70;;;2.10;;
4214;SDS011;2121;48.062;7.850;2024-03-02T09:46:48;2.00;;;1.80;;
4214;SDS011;2121;48.062;7.850;2024-03-02T09:49:14;1.90;;;1.63;;
4214;SDS011;2121;48.062;7.850;2024-03-02T09:51:40;1.93;;;1.80;;
4214;SDS011;2121;48.062;7.850;2024-03-02T09:54:12;1.30;;;1.30;;
4214;SDS011;2121;48.062;7.850;2024-03-02T09:56:38;1.60;;;1.50;;
4214;SDS011;2121;48.062;7.850;2024-03-02T09:59:04;1.27;;;1.27;;
4214;SDS011;2121;48.062;7.850;2024-03-02T10:01:30;1.30;;;1.30;;
4214;SDS011;2121;48.062;7.850;2024-03-02T10:03:59;1.40;;;1.30;;
4214;SDS011;2121;48.062;7.850;2024-03-02T10:06:27;1.50;;;1.40;;
4214;SDS011;2121;48.062;7.850;2024-03-02T10:08:54;1.37;;;1.30;;
4214;SDS011;2121;48.062;7.850;2024-03-02T10:11:27;2.00;;;1.53;;
4214;SDS011;2121;48.062;7.850;2024-03-02T10:16:38;2.00;;;1.90;;
4214;SDS011;2121;48.062;7.850;2024-03-02T10:19:14;0.90;;;0.90;;
4214;SDS011;2121;48.062;7.850;2024-03-02T10:21:44;1.73;;;1.20;;
4214;SDS011;2121;48.062;7.850;2024-03-02T10:24:18;1.33;;;1.23;;
4214;SDS011;2121;48.062;7.850;2024-03-02T10:26:45;1.23;;;1.13;;
4214;SDS011;2121;48.062;7.850;2024-03-02T10:29:11;1.10;;;1.10;;
4214;SDS011;2121;48.062;7.850;2024-03-02T10:31:38;1.40;;;1.30;;
4214;SDS011;2121;48.062;7.850;2024-03-02T10:34:05;1.20;;;1.10;;
4214;SDS011;2121;48.062;7.850;2024-03-02T10:36:32;1.30;;;1.20;;
4214;SDS011;2121;48.062;7.850;2024-03-02T10:39:05;1.30;;;1.20;;
4214;SDS011;2121;48.062;7.850;2024-03-02T10:41:32;1.40;;;1.30;;
4214;SDS011;2121;48.062;7.850;2024-03-02T10:44:01;1.23;;;1.13;;
4214;SDS011;2121;48.062;7.850;2024-03-02T10:46:29;4.60;;;1.20;;
4214;SDS011;2121;48.062;7.850;2024-03-02T10:48:57;1.90;;;1.80;;
4214;SDS011;2121;48.062;7.850;2024-03-02T10:51:25;1.10;;;1.10;;
4214;SDS011;2121;48.062;7.850;2024-03-02T10:53:52;1.77;;;1.20;;
4214;SDS011;2121;48.062;7.850;2024-03-02T10:56:23;1.60;;;1.50;;
4214;SDS011;2121;48.062;7.850;2024-03-02T10:58:55;1.50;;;1.40;;
4214;SDS011;2121;48.062;7.850;2024-03-02T11:01:52;1.40;;;1.40;;
4214;SDS011;2121;48.062;7.850;2024-03-02T11:04:25;2.23;;;1.77;;
4214;SDS011;2121;48.062;7.850;2024-03-02T11:06:54;1.57;;;1.50;;
4214;SDS011;2121;48.062;7.850;2024-03-02T11:09:28;1.40;;;1.30;;
4214;SDS011;2121;48.062;7.850;2024-03-02T11:12:02;1.20;;;1.20;;
4214;SDS011;2121;48.062;7.850;2024-03-02T11:14:34;1.57;;;1.43;;
4214;SDS011;2121;48.062;7.850;2024-03-02T11:17:06;1.37;;;1.37;;
4214;SDS011;2121;48.062;7.850;2024-03-02T11:19:33;1.50;;;1.40;;
4214;SDS011;2121;48.062;7.850;2024-03-02T11:21:59;1.40;;;1.30;;
4214;SDS011;2121;48.062;7.850;2024-03-02T11:24:28;2.30;;;1.57;;
4214;SDS011;2121;48.062;7.850;2024-03-02T11:26:58;1.30;;;1.20;;
4214;SDS011;2121;48.062;7.850;2024-03-02T11:29:46;1.43;;;1.33;;
4214;SDS011;2121;48.062;7.850;2024-03-02T11:32:13;1.40;;;1.30;;
4214;SDS011;2121;48.062;7.850;2024-03-02T11:34:45;1.30;;;1.30;;
4214;SDS011;2121;48.062;7.850;2024-03-02T11:37:13;3.73;;;1.60;;
4214;SDS011;2121;48.062;7.850;2024-03-02T11:39:40;1.90;;;1.20;;
4214;SDS011;2121;48.062;7.850;2024-03-02T11:42:08;3.70;;;1.57;;
4214;SDS011;2121;48.062;7.850;2024-03-02T11:44:35;1.53;;;1.47;;
4214;SDS011;2121;48.062;7.850;2024-03-02T11:47:03;1.07;;;1.07;;
4214;SDS011;2121;48.062;7.850;2024-03-02T11:49:45;1.20;;;1.20;;
4214;SDS011;2121;48.062;7.850;2024-03-02T11:52:15;1.10;;;1.10;;
4214;SDS011;2121;48.062;7.850;2024-03-02T11:54:44;1.40;;;1.30;;
4214;SDS011;2121;48.062;7.850;2024-03-02T11:57:16;1.23;;;1.23;;
4214;SDS011;2121;48.062;7.850;2024-03-02T11:59:51;0.90;;;0.90;;
4214;SDS011;2121;48.062;7.850;2024-03-02T12:02:18;1.57;;;1.47;;
4214;SDS011;2121;48.062;7.850;2024-03-02T12:04:45;1.17;;;1.17;;
4214;SDS011;2121;48.062;7.850;2024-03-02T12:07:18;1.10;;;1.10;;
4214;SDS011;2121;48.062;7.850;2024-03-02T12:10:09;1.10;;;1.10;;
4214;SDS011;2121;48.062;7.850;2024-03-02T12:12:34;1.23;;;1.20;;
4214;SDS011;2121;48.062;7.850;2024-03-02T12:15:00;1.77;;;1.10;;
4214;SDS011;2121;48.062;7.850;2024-03-02T12:17:26;4.40;;;1.10;;
4214;SDS011;2121;48.062;7.850;2024-03-02T12:19:52;1.50;;;1.40;;
4214;SDS011;2121;48.062;7.850;2024-03-02T12:22:18;1.33;;;1.23;;
4214;SDS011;2121;48.062;7.850;2024-03-02T12:24:47;1.57;;;1.47;;
4214;SDS011;2121;48.062;7.850;2024-03-02T12:27:13;1.03;;;1.03;;
4214;SDS011;2121;48.062;7.850;2024-03-02T12:29:40;1.10;;;1.10;;
4214;SDS011;2121;48.062;7.850;2024-03-02T12:32:06;1.10;;;1.10;;
4214;SDS011;2121;48.062;7.850;2024-03-02T12:34:32;1.27;;;1.17;;
4214;SDS011;2121;48.062;7.850;2024-03-02T12:36:58;1.30;;;1.30;;
4214;SDS011;2121;48.062;7.850;2024-03-02T12:39:24;1.73;;;1.63;;
4214;SDS011;2121;48.062;7.850;2024-03-02T12:41:50;1.27;;;1.20;;
4214;SDS011;2121;48.062;7.850;2024-03-02T12:44:20;2.00;;;1.30;;
4214;SDS011;2121;48.062;7.850;2024-03-02T12:46:46;1.40;;;1.30;;
4214;SDS011;2121;48.062;7.850;2024-03-02T12:49:12;1.37;;;1.27;;
4214;SDS011;2121;48.062;7.850;2024-03-02T12:51:43;1.40;;;1.30;;
4214;SDS011;2121;48.062;7.850;2024-03-02T12:54:11;1.50;;;1.27;;
4214;SDS011;2121;48.062;7.850;2024-03-02T12:56:37;1.50;;;1.40;;
4214;SDS011;2121;48.062;7.850;2024-03-02T12:59:04;1.33;;;1.27;;
4214;SDS011;2121;48.062;7.850;2024-03-02T13:01:30;1.40;;;1.30;;
4214;SDS011;2121;48.062;7.850;2024-03-02T13:03:57;1.50;;;1.40;;
4214;SDS011;2121;48.062;7.850;2024-03-02T13:06:24;1.27;;;1.27;;
4214;SDS011;2121;48.062;7.850;2024-03-02T13:08:54;1.40;;;1.30;;
4214;SDS011;2121;48.062;7.850;2024-03-02T13:11:20;1.97;;;1.77;;
4214;SDS011;2121;48.062;7.850;2024-03-02T13:13:48;1.20;;;1.20;;
4214;SDS011;2121;48.062;7.850;2024-03-02T13:16:15;1.70;;;1.30;;
4214;SDS011;2121;48.062;7.850;2024-03-02T13:18:44;2.60;;;2.40;;
4214;SDS011;2121;48.062;7.850;2024-03-02T13:21:10;1.30;;;1.30;;
4214;SDS011;2121;48.062;7.850;2024-03-02T13:23:35;2.43;;;2.23;;
4214;SDS011;2121;48.062;7.850;2024-03-02T13:26:01;1.67;;;1.40;;
4214;SDS011;2121;48.062;7.850;2024-03-02T13:28:27;5.67;;;2.20;;
4214;SDS011;2121;48.062;7.850;2024-03-02T13:30:53;2.53;;;1.83;;
4214;SDS011;2121;48.062;7.850;2024-03-02T13:33:19;2.27;;;2.07;;
4214;SDS011;2121;48.062;7.850;2024-03-02T13:35:48;2.70;;;2.07;;
4214;SDS011;2121;48.062;7.850;2024-03-02T13:38:17;1.40;;;1.30;;
4214;SDS011;2121;48.062;7.850;2024-03-02T13:40:44;3.70;;;2.77;;
4214;SDS011;2121;48.062;7.850;2024-03-02T13:43:10;3.57;;;2.17;;
4214;SDS011;2121;48.062;7.850;2024-03-02T13:45:37;1.83;;;1.67;;
4214;SDS011;2121;48.062;7.850;2024-03-02T13:48:04;1.60;;;1.50;;
4214;SDS011;2121;48.062;7.850;2024-03-02T13:50:30;2.87;;;1.90;;
4214;SDS011;2121;48.062;7.850;2024-03-02T13:52:56;2.43;;;2.23;;
4214;SDS011;2121;48.062;7.850;2024-03-02T13:55:22;1.77;;;1.67;;
4214;SDS011;2121;48.062;7.850;2024-03-02T13:57:48;1.90;;;1.80;;
4214;SDS011;2121;48.062;7.850;2024-03-02T14:00:15;2.20;;;1.80;;
4214;SDS011;2121;48.062;7.850;2024-03-02T14:02:42;1.77;;;1.67;;
4214;SDS011;2121;48.062;7.850;2024-03-02T14:05:09;1.70;;;1.60;;
4214;SDS011;2121;48.062;7.850;2024-03-02T14:07:37;1.60;;;1.50;;
4214;SDS011;2121;48.062;7.850;2024-03-02T14:10:03;1.80;;;1.70;;
4214;SDS011;2121;48.062;7.850;2024-03-02T14:12:29;1.70;;;1.60;;
4214;SDS011;2121;48.062;7.850;2024-03-02T14:14:55;3.67;;;1.60;;
4214;SDS011;2121;48.062;7.850;2024-03-02T14:17:23;1.80;;;1.70;;
4214;SDS011;2121;48.062;7.850;2024-03-02T14:19:50;1.70;;;1.60;;
4214;SDS011;2121;48.062;7.850;2024-03-02T14:22:18;1.70;;;1.60;;
4214;SDS011;2121;48.062;7.850;2024-03-02T14:24:45;1.50;;;1.40;;
4214;SDS011;2121;48.062;7.850;2024-03-02T14:27:11;3.53;;;2.03;;
4214;SDS011;2121;48.062;7.850;2024-03-02T14:29:39;4.40;;;1.50;;
4214;SDS011;2121;48.062;7.850;2024-03-02T14:32:05;2.90;;;1.47;;
4214;SDS011;2121;48.062;7.850;2024-03-02T14:34:31;1.67;;;1.50;;
4214;SDS011;2121;48.062;7.850;2024-03-02T14:36:58;1.57;;;1.50;;
4214;SDS011;2121;48.062;7.850;2024-03-02T14:39:24;1.93;;;1.83;;
4214;SDS011;2121;48.062;7.850;2024-03-02T14:41:51;1.40;;;1.40;;
4214;SDS011;2121;48.062;7.850;2024-03-02T14:44:17;1.80;;;1.70;;
4214;SDS011;2121;48.062;7.850;2024-03-02T14:46:42;5.23;;;2.47;;
4214;SDS011;2121;48.062;7.850;2024-03-02T14:49:12;1.87;;;1.77;;
4214;SDS011;2121;48.062;7.850;2024-03-02T14:51:38;4.03;;;2.10;;
4214;SDS011;2121;48.062;7.850;2024-03-02T14:54:03;2.40;;;2.07;;
4214;SDS011;2121;48.062;7.850;2024-03-02T14:56:30;1.60;;;1.50;;
4214;SDS011;2121;48.062;7.850;2024-03-02T14:58:55;2.93;;;2.03;;
4214;SDS011;2121;48.062;7.850;2024-03-02T15:01:21;1.80;;;1.70;;
4214;SDS011;2121;48.062;7.850;2024-03-02T15:03:51;4.30;;;2.40;;
4214;SDS011;2121;48.062;7.850;2024-03-02T15:06:17;3.20;;;2.13;;
4214;SDS011;2121;48.062;7.850;2024-03-02T15:08:43;2.43;;;2.23;;
4214;SDS011;2121;48.062;7.850;2024-03-02T15:11:11;2.87;;;2.63;;
4214;SDS011;2121;48.062;7.850;2024-03-02T15:13:37;2.27;;;2.10;;
4214;SDS011;2121;48.062;7.850;2024-03-02T15:16:04;3.33;;;2.40;;
4214;SDS011;2121;48.062;7.850;2024-03-02T15:18:30;3.40;;;2.93;;
4214;SDS011;2121;48.062;7.850;2024-03-02T15:20:56;2.17;;;1.97;;
4214;SDS011;2121;48.062;7.850;2024-03-02T15:23:21;3.33;;;2.30;;